Airfield :
LOGIN :

Register | Disclaimer

   EN    FR    IT 

 










Legend :    VFR   Marginal VFR   IFR   Intensive IFR   Very Intensive IFR
Visi :
Ceiling :
>= 8 km
>= 3000ft
5 to 8 km
1000 to 3000 ft
1500m to 5 km
500 to 1000 ft
800 to 1500m
200 to 500 ft
< 800m
< 200 ft
Symbols :   Thunderstorms  Fog  Heavy snow  Heavy precipitations  Wind > 20 kt
SIGMETs :     Misc.  Thunderstorms  Icing  Turbulence  Mountain Waves  Volcanic Ashes







- Airport Elevation : 15 ft
- IATA code : BHD
- Download approach charts


EGAC - George Best Belfast City

CURRENT METAR :
  • 152150Z AUTO 27020G32KT 220V300 3700 RA SCT019/// SCT023/// BKN027/// 07/05 Q0987 RERA

EXPIRED METARs :
  • 152120Z AUTO 28018G33KT 2300 +RA SCT016/// BKN020/// BKN029/// 07/05 Q0985
  • 152050Z AUTO 23012KT 170V260 1400 +RA SCT008/// BKN017/// BKN023/// 06/05 Q0985 REDZ
  • 152020Z AUTO 13014KT 4100 RADZ BKN006/// BKN011/// OVC022/// 07/06 Q0983
  • 151950Z AUTO 12013KT 2500 RADZ BKN006/// OVC018/// 07/07 Q0983
  • 151920Z AUTO 13013G23KT 4300 -DZ OVC006/// 07/07 Q0983 RERA REDZ

Expired Forecast.
ATIS : +44 02890 935 124
No reported NOTAMs for that airfield.
4 SIGMETs reported for the Scottish FIR (EGPX) :
 
Severe icing
EGPX SIGMET 18 VALID 152230/160230 EGRR
EGPX SCOTTISH FIR SEV ICE FCST WI N5500 W00012 - N5641 W00216 - N5634 W00409 - N6100 W00545 - N6100 W00409 - N5500 E00203 - N5500 W00012 FL030/080 MOV NE 15KT WKN=
Severe mountain waves
EGPX SIGMET 17 VALID 152000/152300 EGRR
EGPX SCOTTISH FIR SEV MTW FCST WI N5522 W00510 - N5849 W00623 - N5914 W00217 - N5510 W00125 - N5500 W00128 - N5500 W00434 - N5522 W00510 FL030/250 STNR NC=
Severe turbulence
EGPX SIGMET 16 VALID 152000/152300 EGRR
EGPX SCOTTISH FIR SEV TURB FCST WI N5500 E00304 - N5500 W00530 - N5355 W00530 - N5500 W01000 - N6100 W01000 - N6100 E00000 - N6000 E00000 - N5703 E00454 - N5500 E00304 SFC/FL060 STNR NC=
Severe icing
EGPX SIGMET 15 VALID 151830/152230 EGRR
EGPX SCOTTISH FIR SEV ICE FCST WI N5500 W00123 - N5620 W00234 - N5904 W00720 - N6028 W00716 - N5744 W00208 - N5500 W00005 - N5500 W00123 FL030/100 MOV E 15KT NC=



MET'MAP, your aeronautical weather chart ! - Copyright ORBIFLY December 2007 - Disclaimer

ORBIFLY MET'MAP TEAM :

Programming & Development : Alexandra Zaïnal
Concept & Development : Baudouin d'Aumeries
Co-Development & Prog : Marc-Olivier Méhu
Technical & hardware support : Manuel Goepfert

Contact : metmap@orbifly.com




SOURCES & CREDITS :

   NOAA